sensor_id;sensor_type;location;lat;lon;timestamp;pressure;altitude;pressure_sealevel;temperature;humidity
70407;BME280;57821;52.202;0.154;2023-07-13T00:02:01;101360.75;;;17.07;75.05
70407;BME280;57821;52.202;0.154;2023-07-13T00:04:28;101352.97;;;17.04;74.91
70407;BME280;57821;52.202;0.154;2023-07-13T00:06:58;101359.13;;;17.03;74.63
70407;BME280;57821;52.202;0.154;2023-07-13T00:09:25;101357.47;;;16.99;74.89
70407;BME280;57821;52.202;0.154;2023-07-13T00:11:54;101355.78;;;16.95;74.60
70407;BME280;57821;52.202;0.154;2023-07-13T00:14:22;101362.75;;;16.96;74.56
70407;BME280;57821;52.202;0.154;2023-07-13T00:16:49;101358.50;;;16.91;74.75
70407;BME280;57821;52.202;0.154;2023-07-13T00:19:16;101355.97;;;16.88;74.88
70407;BME280;57821;52.202;0.154;2023-07-13T00:21:44;101357.75;;;16.84;74.64
70407;BME280;57821;52.202;0.154;2023-07-13T00:24:13;101347.44;;;16.76;75.11
70407;BME280;57821;52.202;0.154;2023-07-13T00:26:40;101368.34;;;16.78;74.68
70407;BME280;57821;52.202;0.154;2023-07-13T00:29:07;101363.19;;;16.75;74.54
70407;BME280;57821;52.202;0.154;2023-07-13T00:31:34;101360.69;;;16.69;74.54
70407;BME280;57821;52.202;0.154;2023-07-13T00:34:01;101354.69;;;16.64;75.27
70407;BME280;57821;52.202;0.154;2023-07-13T00:36:29;101354.75;;;16.58;74.87
70407;BME280;57821;52.202;0.154;2023-07-13T00:38:57;101353.88;;;16.57;75.21
70407;BME280;57821;52.202;0.154;2023-07-13T00:41:23;101358.34;;;16.54;75.29
70407;BME280;57821;52.202;0.154;2023-07-13T00:43:50;101360.16;;;16.49;75.11
70407;BME280;57821;52.202;0.154;2023-07-13T00:48:53;101364.66;;;16.42;75.73
70407;BME280;57821;52.202;0.154;2023-07-13T00:51:25;101358.63;;;16.37;76.03
70407;BME280;57821;52.202;0.154;2023-07-13T00:53:56;101358.66;;;16.35;76.05
70407;BME280;57821;52.202;0.154;2023-07-13T00:56:26;101352.59;;;16.32;76.00
70407;BME280;57821;52.202;0.154;2023-07-13T00:58:53;101363.13;;;16.30;76.37
70407;BME280;57821;52.202;0.154;2023-07-13T01:01:19;101359.69;;;16.27;76.20
70407;BME280;57821;52.202;0.154;2023-07-13T01:03:46;101359.75;;;16.24;76.15
70407;BME280;57821;52.202;0.154;2023-07-13T01:06:13;101362.41;;;16.19;76.18
70407;BME280;57821;52.202;0.154;2023-07-13T01:08:41;101361.59;;;16.17;76.38
70407;BME280;57821;52.202;0.154;2023-07-13T01:11:07;101356.44;;;16.13;76.70
70407;BME280;57821;52.202;0.154;2023-07-13T01:13:34;101359.97;;;16.10;76.71
70407;BME280;57821;52.202;0.154;2023-07-13T01:16:05;101360.91;;;16.06;77.00
70407;BME280;57821;52.202;0.154;2023-07-13T01:18:38;101360.97;;;16.03;76.70
70407;BME280;57821;52.202;0.154;2023-07-13T01:21:05;101361.03;;;16.00;77.39
70407;BME280;57821;52.202;0.154;2023-07-13T01:23:32;101365.41;;;15.96;77.08
70407;BME280;57821;52.202;0.154;2023-07-13T01:25:59;101354.16;;;15.93;77.11
70407;BME280;57821;52.202;0.154;2023-07-13T01:28:27;101366.38;;;15.91;77.25
70407;BME280;57821;52.202;0.154;2023-07-13T01:30:56;101347.34;;;15.83;77.18
70407;BME280;57821;52.202;0.154;2023-07-13T01:33:23;101356.88;;;15.85;77.17
70407;BME280;57821;52.202;0.154;2023-07-13T01:35:50;101357.84;;;15.80;77.55
70407;BME280;57821;52.202;0.154;2023-07-13T01:38:21;101350.16;;;15.72;77.47
70407;BME280;57821;52.202;0.154;2023-07-13T01:40:48;101357.13;;;15.72;78.52
70407;BME280;57821;52.202;0.154;2023-07-13T01:43:14;101356.28;;;15.68;77.60
70407;BME280;57821;52.202;0.154;2023-07-13T01:45:41;101353.75;;;15.64;77.62
70407;BME280;57821;52.202;0.154;2023-07-13T01:48:12;101363.41;;;15.58;77.60
70407;BME280;57821;52.202;0.154;2023-07-13T01:50:38;101361.72;;;15.54;77.81
70407;BME280;57821;52.202;0.154;2023-07-13T01:53:07;101363.50;;;15.49;78.36
70407;BME280;57821;52.202;0.154;2023-07-13T01:55:34;101364.44;;;15.44;78.35
70407;BME280;57821;52.202;0.154;2023-07-13T01:58:02;101360.16;;;15.40;78.40
70407;BME280;57821;52.202;0.154;2023-07-13T02:00:29;101366.31;;;15.36;78.47
70407;BME280;57821;52.202;0.154;2023-07-13T02:02:56;101362.91;;;15.31;78.74
70407;BME280;57821;52.202;0.154;2023-07-13T02:05:23;101362.06;;;15.27;78.56
70407;BME280;57821;52.202;0.154;2023-07-13T02:07:50;101359.50;;;15.24;78.58
70407;BME280;57821;52.202;0.154;2023-07-13T02:10:17;101350.81;;;15.22;79.26
70407;BME280;57821;52.202;0.154;2023-07-13T02:12:44;101354.34;;;15.19;79.27
70407;BME280;57821;52.202;0.154;2023-07-13T02:15:11;101351.75;;;15.18;79.32
70407;BME280;57821;52.202;0.154;2023-07-13T02:17:37;101353.56;;;15.13;79.11
70407;BME280;57821;52.202;0.154;2023-07-13T02:20:05;101357.06;;;15.09;79.11
70407;BME280;57821;52.202;0.154;2023-07-13T02:22:32;101350.16;;;15.06;79.43
70407;BME280;57821;52.202;0.154;2023-07-13T02:24:59;101365.03;;;15.01;79.37
70407;BME280;57821;52.202;0.154;2023-07-13T02:27:25;101358.97;;;14.98;79.41
70407;BME280;57821;52.202;0.154;2023-07-13T02:29:52;101356.41;;;14.93;79.84
70407;BME280;57821;52.202;0.154;2023-07-13T02:32:20;101365.16;;;14.91;79.47
70407;BME280;57821;52.202;0.154;2023-07-13T02:34:47;101356.47;;;14.87;79.95
70407;BME280;57821;52.202;0.154;2023-07-13T02:37:14;101354.78;;;14.83;79.64
70407;BME280;57821;52.202;0.154;2023-07-13T02:39:41;101356.56;;;14.79;79.68
70407;BME280;57821;52.202;0.154;2023-07-13T02:42:08;101354.88;;;14.75;80.32
70407;BME280;57821;52.202;0.154;2023-07-13T02:44:34;101357.53;;;14.72;80.22
70407;BME280;57821;52.202;0.154;2023-07-13T02:47:01;101357.56;;;14.69;80.38
70407;BME280;57821;52.202;0.154;2023-07-13T02:49:28;101350.66;;;14.65;80.52
70407;BME280;57821;52.202;0.154;2023-07-13T02:51:55;101346.34;;;14.61;80.60
70407;BME280;57821;52.202;0.154;2023-07-13T02:54:22;101347.22;;;14.60;81.01
70407;BME280;57821;52.202;0.154;2023-07-13T02:56:49;101348.13;;;14.56;81.05
70407;BME280;57821;52.202;0.154;2023-07-13T02:59:15;101359.47;;;14.55;80.67
70407;BME280;57821;52.202;0.154;2023-07-13T03:01:42;101359.53;;;14.49;81.18
70407;BME280;57821;52.202;0.154;2023-07-13T03:04:10;101362.09;;;14.51;80.89
70407;BME280;57821;52.202;0.154;2023-07-13T03:06:37;101359.53;;;14.49;81.54
70407;BME280;57821;52.202;0.154;2023-07-13T03:09:04;101354.31;;;14.46;81.52
70407;BME280;57821;52.202;0.154;2023-07-13T03:11:33;101358.69;;;14.46;81.40
70407;BME280;57821;52.202;0.154;2023-07-13T03:14:21;101360.47;;;14.44;81.54
70407;BME280;57821;52.202;0.154;2023-07-13T03:16:49;101358.72;;;14.43;81.69
70407;BME280;57821;52.202;0.154;2023-07-13T03:19:16;101354.38;;;14.42;81.29
70407;BME280;57821;52.202;0.154;2023-07-13T03:21:47;101359.59;;;14.40;82.61
70407;BME280;57821;52.202;0.154;2023-07-13T03:24:14;101360.50;;;14.37;81.36
70407;BME280;57821;52.202;0.154;2023-07-13T03:26:41;101361.34;;;14.35;81.32
70407;BME280;57821;52.202;0.154;2023-07-13T03:29:08;101367.50;;;14.32;81.76
70407;BME280;57821;52.202;0.154;2023-07-13T03:31:36;101354.50;;;14.25;81.95
70407;BME280;57821;52.202;0.154;2023-07-13T03:34:03;101364.91;;;14.28;81.70
70407;BME280;57821;52.202;0.154;2023-07-13T03:36:31;101364.94;;;14.25;82.16
70407;BME280;57821;52.202;0.154;2023-07-13T03:39:02;101375.38;;;14.25;82.62
70407;BME280;57821;52.202;0.154;2023-07-13T03:41:36;101375.38;;;14.22;82.21
70407;BME280;57821;52.202;0.154;2023-07-13T03:44:03;101370.22;;;14.19;83.07
70407;BME280;57821;52.202;0.154;2023-07-13T03:46:30;101372.81;;;14.17;82.64
70407;BME280;57821;52.202;0.154;2023-07-13T03:48:57;101375.44;;;14.16;83.03
70407;BME280;57821;52.202;0.154;2023-07-13T03:51:24;101378.94;;;14.13;82.79
70407;BME280;57821;52.202;0.154;2023-07-13T03:53:51;101386.78;;;14.13;83.27
70407;BME280;57821;52.202;0.154;2023-07-13T03:56:19;101383.31;;;14.11;83.09
70407;BME280;57821;52.202;0.154;2023-07-13T03:58:48;101377.28;;;14.05;83.16
70407;BME280;57821;52.202;0.154;2023-07-13T04:01:23;101371.19;;;14.04;83.44
70407;BME280;57821;52.202;0.154;2023-07-13T04:03:50;101382.47;;;14.08;83.61
70407;BME280;57821;52.202;0.154;2023-07-13T04:06:26;101389.44;;;14.06;83.70
70407;BME280;57821;52.202;0.154;2023-07-13T04:08:56;101389.44;;;14.06;84.04
70407;BME280;57821;52.202;0.154;2023-07-13T04:11:26;101387.69;;;14.05;84.12
70407;BME280;57821;52.202;0.154;2023-07-13T04:13:53;101384.22;;;14.06;83.72
70407;BME280;57821;52.202;0.154;2023-07-13T04:16:20;101381.63;;;14.06;84.49
70407;BME280;57821;52.202;0.154;2023-07-13T04:18:48;101385.97;;;14.07;84.52
70407;BME280;57821;52.202;0.154;2023-07-13T04:21:15;101392.03;;;14.09;84.15
70407;BME280;57821;52.202;0.154;2023-07-13T04:23:42;101390.25;;;14.11;84.59
70407;BME280;57821;52.202;0.154;2023-07-13T04:26:09;101392.00;;;14.12;84.38
70407;BME280;57821;52.202;0.154;2023-07-13T04:28:36;101388.47;;;14.16;84.50
70407;BME280;57821;52.202;0.154;2023-07-13T04:31:03;101389.34;;;14.18;84.52
70407;BME280;57821;52.202;0.154;2023-07-13T04:33:30;101398.91;;;14.20;84.62
70407;BME280;57821;52.202;0.154;2023-07-13T04:35:57;101394.50;;;14.25;85.19
70407;BME280;57821;52.202;0.154;2023-07-13T04:38:29;101399.66;;;14.30;85.93
70407;BME280;57821;52.202;0.154;2023-07-13T04:40:57;101395.28;;;14.33;85.34
70407;BME280;57821;52.202;0.154;2023-07-13T04:43:24;101394.38;;;14.39;85.54
70407;BME280;57821;52.202;0.154;2023-07-13T04:45:52;101401.34;;;14.43;85.56
70407;BME280;57821;52.202;0.154;2023-07-13T04:48:19;101409.09;;;14.48;85.65
70407;BME280;57821;52.202;0.154;2023-07-13T04:50:46;101414.28;;;14.54;85.28
70407;BME280;57821;52.202;0.154;2023-07-13T04:53:13;101410.75;;;14.58;85.00
70407;BME280;57821;52.202;0.154;2023-07-13T04:55:39;101414.16;;;14.63;85.05
70407;BME280;57821;52.202;0.154;2023-07-13T04:58:06;101416.75;;;14.67;84.89
70407;BME280;57821;52.202;0.154;2023-07-13T05:00:33;101423.69;;;14.68;84.85
70407;BME280;57821;52.202;0.154;2023-07-13T05:02:59;101423.66;;;14.71;85.20
70407;BME280;57821;52.202;0.154;2023-07-13T05:05:26;101430.56;;;14.75;84.77
70407;BME280;57821;52.202;0.154;2023-07-13T05:07:53;101431.44;;;14.77;85.19
70407;BME280;57821;52.202;0.154;2023-07-13T05:10:20;101439.22;;;14.84;85.06
70407;BME280;57821;52.202;0.154;2023-07-13T05:12:47;101438.28;;;14.88;84.96
70407;BME280;57821;52.202;0.154;2023-07-13T05:15:14;101438.28;;;14.91;84.98
70407;BME280;57821;52.202;0.154;2023-07-13T05:17:41;101439.97;;;14.95;84.37
70407;BME280;57821;52.202;0.154;2023-07-13T05:20:08;101437.28;;;14.98;85.23
70407;BME280;57821;52.202;0.154;2023-07-13T05:22:35;101442.50;;;15.01;84.75
70407;BME280;57821;52.202;0.154;2023-07-13T05:25:05;101446.78;;;15.05;85.09
70407;BME280;57821;52.202;0.154;2023-07-13T05:27:32;101445.84;;;15.12;84.79
70407;BME280;57821;52.202;0.154;2023-07-13T05:29:59;101447.53;;;15.19;84.99
70407;BME280;57821;52.202;0.154;2023-07-13T05:32:25;101449.19;;;15.25;84.98
70407;BME280;57821;52.202;0.154;2023-07-13T05:34:52;101449.13;;;15.29;85.45
70407;BME280;57821;52.202;0.154;2023-07-13T05:37:19;101453.41;;;15.35;85.26
70407;BME280;57821;52.202;0.154;2023-07-13T05:39:45;101452.50;;;15.39;84.65
70407;BME280;57821;52.202;0.154;2023-07-13T05:42:20;101456.84;;;15.40;84.71
70407;BME280;57821;52.202;0.154;2023-07-13T05:44:47;101460.25;;;15.46;84.63
70407;BME280;57821;52.202;0.154;2023-07-13T05:47:13;101468.03;;;15.52;84.94
70407;BME280;57821;52.202;0.154;2023-07-13T05:49:41;101462.75;;;15.55;84.77
70407;BME280;57821;52.202;0.154;2023-07-13T05:52:07;101461.81;;;15.61;84.53
70407;BME280;57821;52.202;0.154;2023-07-13T05:54:34;101459.16;;;15.66;84.33
70407;BME280;57821;52.202;0.154;2023-07-13T05:57:00;101472.19;;;15.67;84.62
70407;BME280;57821;52.202;0.154;2023-07-13T05:59:27;101473.91;;;15.68;84.40
70407;BME280;57821;52.202;0.154;2023-07-13T06:01:54;101480.00;;;15.72;84.16
70407;BME280;57821;52.202;0.154;2023-07-13T06:04:20;101476.44;;;15.74;84.42
70407;BME280;57821;52.202;0.154;2023-07-13T06:06:47;101481.66;;;15.76;84.02
70407;BME280;57821;52.202;0.154;2023-07-13T06:09:14;101474.69;;;15.78;84.02
70407;BME280;57821;52.202;0.154;2023-07-13T06:11:40;101482.44;;;15.84;83.80
70407;BME280;57821;52.202;0.154;2023-07-13T06:14:07;101490.22;;;15.90;84.09
70407;BME280;57821;52.202;0.154;2023-07-13T06:16:34;101491.88;;;15.94;84.14
70407;BME280;57821;52.202;0.154;2023-07-13T06:19:00;101492.59;;;16.05;84.31
70407;BME280;57821;52.202;0.154;2023-07-13T06:21:27;101498.53;;;16.16;84.19
70407;BME280;57821;52.202;0.154;2023-07-13T06:23:54;101497.47;;;16.28;83.61
70407;BME280;57821;52.202;0.154;2023-07-13T06:26:21;101503.47;;;16.34;83.58
70407;BME280;57821;52.202;0.154;2023-07-13T06:28:48;101505.13;;;16.41;82.96
70407;BME280;57821;52.202;0.154;2023-07-13T06:31:15;101511.97;;;16.49;83.19
70407;BME280;57821;52.202;0.154;2023-07-13T06:33:43;101511.00;;;16.54;82.79
70407;BME280;57821;52.202;0.154;2023-07-13T06:36:10;101521.44;;;16.57;82.09
70407;BME280;57821;52.202;0.154;2023-07-13T06:38:37;101520.50;;;16.64;82.24
70407;BME280;57821;52.202;0.154;2023-07-13T06:41:06;101519.56;;;16.67;82.23
70407;BME280;57821;52.202;0.154;2023-07-13T06:43:33;101517.78;;;16.70;81.92
70407;BME280;57821;52.202;0.154;2023-07-13T06:46:00;101512.44;;;16.76;81.79
70407;BME280;57821;52.202;0.154;2023-07-13T06:48:27;101516.72;;;16.79;81.35
70407;BME280;57821;52.202;0.154;2023-07-13T06:50:54;101521.06;;;16.81;81.06
70407;BME280;57821;52.202;0.154;2023-07-13T06:53:20;101517.50;;;16.86;81.24
70407;BME280;57821;52.202;0.154;2023-07-13T06:55:47;101519.13;;;16.91;81.41
70407;BME280;57821;52.202;0.154;2023-07-13T06:58:16;101521.66;;;16.97;81.27
70407;BME280;57821;52.202;0.154;2023-07-13T07:00:43;101525.91;;;17.04;80.81
70407;BME280;57821;52.202;0.154;2023-07-13T07:03:10;101525.81;;;17.09;80.68
70407;BME280;57821;52.202;0.154;2023-07-13T07:05:36;101529.09;;;17.18;80.25
70407;BME280;57821;52.202;0.154;2023-07-13T07:08:03;101533.34;;;17.27;79.91
70407;BME280;57821;52.202;0.154;2023-07-13T07:10:30;101539.31;;;17.34;79.59
70407;BME280;57821;52.202;0.154;2023-07-13T07:12:57;101534.84;;;17.40;79.36
70407;BME280;57821;52.202;0.154;2023-07-13T07:15:24;101533.78;;;17.47;78.32
70407;BME280;57821;52.202;0.154;2023-07-13T07:17:51;101539.84;;;17.51;78.17
70407;BME280;57821;52.202;0.154;2023-07-13T07:20:18;101543.28;;;17.54;78.43
70407;BME280;57821;52.202;0.154;2023-07-13T07:22:45;101536.22;;;17.58;78.27
70407;BME280;57821;52.202;0.154;2023-07-13T07:25:12;101541.38;;;17.64;78.05
70407;BME280;57821;52.202;0.154;2023-07-13T07:27:39;101542.97;;;17.71;78.05
70407;BME280;57821;52.202;0.154;2023-07-13T07:30:08;101540.13;;;17.82;78.49
70407;BME280;57821;52.202;0.154;2023-07-13T07:32:38;101540.78;;;17.91;77.19
70407;BME280;57821;52.202;0.154;2023-07-13T07:35:08;101537.06;;;18.01;77.09
70407;BME280;57821;52.202;0.154;2023-07-13T07:37:34;101547.38;;;18.11;77.25
70407;BME280;57821;52.202;0.154;2023-07-13T07:40:05;101550.69;;;18.17;76.29
70407;BME280;57821;52.202;0.154;2023-07-13T07:42:35;101547.09;;;18.23;76.04
70407;BME280;57821;52.202;0.154;2023-07-13T07:45:02;101547.75;;;18.32;76.71
70407;BME280;57821;52.202;0.154;2023-07-13T07:47:28;101548.38;;;18.42;76.12
70407;BME280;57821;52.202;0.154;2023-07-13T07:49:55;101539.47;;;18.49;75.21
70407;BME280;57821;52.202;0.154;2023-07-13T07:52:22;101548.97;;;18.56;75.12
70407;BME280;57821;52.202;0.154;2023-07-13T07:54:48;101550.50;;;18.65;74.41
70407;BME280;57821;52.202;0.154;2023-07-13T07:57:18;101553.88;;;18.70;73.67
70407;BME280;57821;52.202;0.154;2023-07-13T08:00:05;101558.00;;;18.80;73.39
70407;BME280;57821;52.202;0.154;2023-07-13T08:02:41;101559.47;;;18.92;73.77
70407;BME280;57821;52.202;0.154;2023-07-13T08:05:28;101548.66;;;19.04;73.10
70407;BME280;57821;52.202;0.154;2023-07-13T08:07:57;101558.91;;;19.13;73.00
70407;BME280;57821;52.202;0.154;2023-07-13T08:10:24;101556.88;;;19.22;72.15
70407;BME280;57821;52.202;0.154;2023-07-13T08:12:51;101554.91;;;19.31;71.95
70407;BME280;57821;52.202;0.154;2023-07-13T08:15:20;101558.09;;;19.43;71.61
70407;BME280;57821;52.202;0.154;2023-07-13T08:17:48;101556.13;;;19.51;71.03
70407;BME280;57821;52.202;0.154;2023-07-13T08:20:15;101552.34;;;19.61;70.53
70407;BME280;57821;52.202;0.154;2023-07-13T08:22:42;101560.06;;;19.67;69.84
70407;BME280;57821;52.202;0.154;2023-07-13T08:25:08;101561.69;;;19.72;69.25
70407;BME280;57821;52.202;0.154;2023-07-13T08:27:35;101559.72;;;19.80;69.13
70407;BME280;57821;52.202;0.154;2023-07-13T08:30:02;101555.97;;;19.87;68.99
70407;BME280;57821;52.202;0.154;2023-07-13T08:32:28;101551.53;;;19.89;67.99
70407;BME280;57821;52.202;0.154;2023-07-13T08:34:55;101553.09;;;19.96;66.93
70407;BME280;57821;52.202;0.154;2023-07-13T08:37:22;101552.13;;;19.98;67.32
70407;BME280;57821;52.202;0.154;2023-07-13T08:39:48;101551.03;;;20.05;66.61
70407;BME280;57821;52.202;0.154;2023-07-13T08:42:26;101544.75;;;20.09;68.28
70407;BME280;57821;52.202;0.154;2023-07-13T08:45:03;101555.69;;;20.25;66.73
70407;BME280;57821;52.202;0.154;2023-07-13T08:47:35;101550.16;;;20.34;67.00
70407;BME280;57821;52.202;0.154;2023-07-13T08:50:05;101562.94;;;20.46;66.59
70407;BME280;57821;52.202;0.154;2023-07-13T08:52:38;101551.50;;;20.47;65.52
70407;BME280;57821;52.202;0.154;2023-07-13T08:55:13;101563.47;;;20.58;65.13
70407;BME280;57821;52.202;0.154;2023-07-13T08:57:42;101564.16;;;20.63;64.14
70407;BME280;57821;52.202;0.154;2023-07-13T09:00:11;101564.16;;;20.63;65.21
70407;BME280;57821;52.202;0.154;2023-07-13T09:02:59;101554.44;;;20.65;65.09
70407;BME280;57821;52.202;0.154;2023-07-13T09:05:33;101554.91;;;20.77;65.23
70407;BME280;57821;52.202;0.154;2023-07-13T09:08:17;101553.72;;;20.86;63.95
70407;BME280;57821;52.202;0.154;2023-07-13T09:11:23;101560.53;;;20.93;63.61
70407;BME280;57821;52.202;0.154;2023-07-13T09:16:37;101551.25;;;21.08;61.47
70407;BME280;57821;52.202;0.154;2023-07-13T09:19:07;101549.47;;;21.08;61.12
70407;BME280;57821;52.202;0.154;2023-07-13T09:21:39;101544.19;;;21.08;61.14
70407;BME280;57821;52.202;0.154;2023-07-13T09:26:59;101552.81;;;21.13;62.22
70407;BME280;57821;52.202;0.154;2023-07-13T09:29:29;101552.72;;;21.16;60.43
70407;BME280;57821;52.202;0.154;2023-07-13T09:31:58;101542.16;;;21.16;61.95
70407;BME280;57821;52.202;0.154;2023-07-13T09:34:28;101549.59;;;21.30;60.95
70407;BME280;57821;52.202;0.154;2023-07-13T09:36:55;101550.34;;;21.34;60.59
70407;BME280;57821;52.202;0.154;2023-07-13T09:39:47;101555.63;;;21.34;60.50
70407;BME280;57821;52.202;0.154;2023-07-13T09:42:18;101554.59;;;21.38;60.11
70407;BME280;57821;52.202;0.154;2023-07-13T09:49:54;101561.06;;;21.77;60.29
70407;BME280;57821;52.202;0.154;2023-07-13T09:52:21;101558.75;;;21.91;59.23
70407;BME280;57821;52.202;0.154;2023-07-13T09:54:50;101555.13;;;21.95;59.24
70407;BME280;57821;52.202;0.154;2023-07-13T09:57:22;101563.75;;;22.00;58.06
70407;BME280;57821;52.202;0.154;2023-07-13T09:59:57;101560.47;;;21.92;58.58
70407;BME280;57821;52.202;0.154;2023-07-13T10:05:18;101569.03;;;22.00;59.57
70407;BME280;57821;52.202;0.154;2023-07-13T10:07:44;101562.56;;;22.07;57.24
70407;BME280;57821;52.202;0.154;2023-07-13T10:10:17;101564.00;;;22.16;58.19
70407;BME280;57821;52.202;0.154;2023-07-13T10:12:44;101555.41;;;22.33;58.23
70407;BME280;57821;52.202;0.154;2023-07-13T10:15:20;101547.41;;;22.56;56.49
70407;BME280;57821;52.202;0.154;2023-07-13T10:17:55;101540.53;;;22.74;56.36
70407;BME280;57821;52.202;0.154;2023-07-13T10:20:22;101560.00;;;22.93;55.01
70407;BME280;57821;52.202;0.154;2023-07-13T10:23:05;101557.75;;;23.04;54.00
70407;BME280;57821;52.202;0.154;2023-07-13T10:25:34;101552.81;;;23.17;54.20
70407;BME280;57821;52.202;0.154;2023-07-13T10:28:31;101563.38;;;23.37;53.54
70407;BME280;57821;52.202;0.154;2023-07-13T10:31:01;101561.13;;;23.48;51.32
70407;BME280;57821;52.202;0.154;2023-07-13T10:33:28;101562.00;;;23.49;51.05
70407;BME280;57821;52.202;0.154;2023-07-13T10:36:04;101552.44;;;23.46;50.25
70407;BME280;57821;52.202;0.154;2023-07-13T10:38:35;101558.22;;;23.54;50.11
70407;BME280;57821;52.202;0.154;2023-07-13T10:41:09;101555.88;;;23.67;48.98
70407;BME280;57821;52.202;0.154;2023-07-13T10:43:44;101550.81;;;23.81;48.36
70407;BME280;57821;52.202;0.154;2023-07-13T10:46:14;101557.06;;;23.99;49.44
70407;BME280;57821;52.202;0.154;2023-07-13T10:48:43;101557.63;;;24.24;49.13
70407;BME280;57821;52.202;0.154;2023-07-13T10:51:17;101568.19;;;24.62;47.01
70407;BME280;57821;52.202;0.154;2023-07-13T10:53:44;101563.69;;;24.81;46.03
70407;BME280;57821;52.202;0.154;2023-07-13T10:58:39;101551.38;;;25.14;45.64
70407;BME280;57821;52.202;0.154;2023-07-13T11:01:09;101557.13;;;25.22;44.25
70407;BME280;57821;52.202;0.154;2023-07-13T11:03:49;101555.13;;;25.27;45.67
70407;BME280;57821;52.202;0.154;2023-07-13T11:06:37;101556.06;;;25.26;45.17
70407;BME280;57821;52.202;0.154;2023-07-13T11:12:07;101552.25;;;25.15;46.41
70407;BME280;57821;52.202;0.154;2023-07-13T11:14:37;101552.13;;;25.16;44.39
70407;BME280;57821;52.202;0.154;2023-07-13T11:17:24;101555.25;;;25.24;43.93
70407;BME280;57821;52.202;0.154;2023-07-13T11:19:51;101550.88;;;25.23;43.62
70407;BME280;57821;52.202;0.154;2023-07-13T11:22:23;101559.03;;;25.20;44.76
70407;BME280;57821;52.202;0.154;2023-07-13T11:27:41;101553.28;;;25.28;44.52
70407;BME280;57821;52.202;0.154;2023-07-13T11:32:44;101559.66;;;24.91;44.18
70407;BME280;57821;52.202;0.154;2023-07-13T11:35:21;101557.09;;;24.71;44.72
70407;BME280;57821;52.202;0.154;2023-07-13T11:37:49;101568.59;;;24.52;45.09
70407;BME280;57821;52.202;0.154;2023-07-13T11:40:15;101572.06;;;24.36;46.55
70407;BME280;57821;52.202;0.154;2023-07-13T11:42:42;101568.72;;;24.13;46.68
70407;BME280;57821;52.202;0.154;2023-07-13T11:45:19;101550.59;;;23.86;47.92
70407;BME280;57821;52.202;0.154;2023-07-13T11:47:52;101560.91;;;23.73;47.38
70407;BME280;57821;52.202;0.154;2023-07-13T11:50:21;101554.78;;;23.52;47.27
70407;BME280;57821;52.202;0.154;2023-07-13T11:52:49;101551.06;;;23.36;48.41
70407;BME280;57821;52.202;0.154;2023-07-13T11:55:18;101557.28;;;23.15;49.04
70407;BME280;57821;52.202;0.154;2023-07-13T12:00:23;101577.25;;;22.81;52.28
70407;BME280;57821;52.202;0.154;2023-07-13T12:02:54;101589.44;;;22.62;52.80
70407;BME280;57821;52.202;0.154;2023-07-13T12:05:22;101592.53;;;22.30;54.76
70407;BME280;57821;52.202;0.154;2023-07-13T12:07:49;101585.78;;;21.99;56.29
70407;BME280;57821;52.202;0.154;2023-07-13T12:10:28;101567.81;;;21.61;60.21
70407;BME280;57821;52.202;0.154;2023-07-13T12:13:01;101564.13;;;21.42;62.24
70407;BME280;57821;52.202;0.154;2023-07-13T12:15:43;101571.78;;;21.24;62.43
70407;BME280;57821;52.202;0.154;2023-07-13T12:18:17;101573.25;;;21.07;63.66
70407;BME280;57821;52.202;0.154;2023-07-13T12:20:45;101591.13;;;20.97;62.60
70407;BME280;57821;52.202;0.154;2023-07-13T12:23:31;101569.88;;;20.77;62.44
70407;BME280;57821;52.202;0.154;2023-07-13T12:26:02;101577.25;;;20.66;64.48
70407;BME280;57821;52.202;0.154;2023-07-13T12:28:34;101570.25;;;20.65;65.32
70407;BME280;57821;52.202;0.154;2023-07-13T12:31:02;101561.50;;;20.64;65.53
70407;BME280;57821;52.202;0.154;2023-07-13T12:33:31;101558.09;;;20.61;64.42
70407;BME280;57821;52.202;0.154;2023-07-13T12:36:00;101549.06;;;20.68;64.78
70407;BME280;57821;52.202;0.154;2023-07-13T12:38:30;101564.34;;;20.84;65.08
70407;BME280;57821;52.202;0.154;2023-07-13T12:40:56;101564.06;;;20.92;64.07
70407;BME280;57821;52.202;0.154;2023-07-13T12:43:24;101553.22;;;21.01;65.23
70407;BME280;57821;52.202;0.154;2023-07-13T12:45:58;101540.56;;;21.11;65.74
70407;BME280;57821;52.202;0.154;2023-07-13T12:48:26;101542.09;;;21.19;64.01
70407;BME280;57821;52.202;0.154;2023-07-13T12:51:13;101532.09;;;21.27;64.32
70407;BME280;57821;52.202;0.154;2023-07-13T12:55:24;101543.38;;;21.56;60.60
70407;BME280;57821;52.202;0.154;2023-07-13T12:57:56;101529.16;;;21.60;61.35
70407;BME280;57821;52.202;0.154;2023-07-13T13:03:02;101546.59;;;21.87;60.57
70407;BME280;57821;52.202;0.154;2023-07-13T13:06:00;101539.16;;;21.98;59.55
70407;BME280;57821;52.202;0.154;2023-07-13T13:08:27;101550.06;;;22.13;57.32
70407;BME280;57821;52.202;0.154;2023-07-13T13:10:54;101548.88;;;22.20;58.43
70407;BME280;57821;52.202;0.154;2023-07-13T13:13:20;101545.91;;;22.29;58.64
70407;BME280;57821;52.202;0.154;2023-07-13T13:15:47;101539.44;;;22.36;57.24
70407;BME280;57821;52.202;0.154;2023-07-13T13:18:23;101531.19;;;22.43;58.20
70407;BME280;57821;52.202;0.154;2023-07-13T13:20:51;101535.31;;;22.50;55.39
70407;BME280;57821;52.202;0.154;2023-07-13T13:23:20;101526.53;;;22.50;56.12
70407;BME280;57821;52.202;0.154;2023-07-13T13:25:49;101520.13;;;22.56;57.19
70407;BME280;57821;52.202;0.154;2023-07-13T13:28:19;101518.53;;;22.73;54.55
70407;BME280;57821;52.202;0.154;2023-07-13T13:30:49;101521.72;;;22.81;54.41
70407;BME280;57821;52.202;0.154;2023-07-13T13:33:18;101528.34;;;22.91;54.10
70407;BME280;57821;52.202;0.154;2023-07-13T13:35:45;101520.78;;;23.03;53.40